createdAt,value
2023-04-15T00:00:59.895Z,1.10
2023-04-15T00:03:28.898Z,1.10
2023-04-15T00:05:58.454Z,1.10
2023-04-15T00:08:26.968Z,0.90
2023-04-15T00:10:55.202Z,0.60
2023-04-15T00:13:23.760Z,0.90
2023-04-15T00:15:52.377Z,0.90
2023-04-15T00:18:20.632Z,0.90
2023-04-15T00:20:48.904Z,1.00
2023-04-15T00:23:17.183Z,1.00
2023-04-15T00:25:45.620Z,0.90
2023-04-15T00:28:14.272Z,1.10
2023-04-15T00:30:44.811Z,0.80
2023-04-15T00:33:18.845Z,1.20
2023-04-15T00:35:48.366Z,1.10
2023-04-15T00:38:16.669Z,1.00
2023-04-15T00:40:44.910Z,1.40
2023-04-15T00:43:13.251Z,1.10
2023-04-15T00:45:41.849Z,1.30
2023-04-15T00:48:11.721Z,1.00
2023-04-15T00:50:40.098Z,1.00
2023-04-15T00:53:08.377Z,0.90
2023-04-15T00:55:38.096Z,1.00
2023-04-15T00:58:06.500Z,1.30
2023-04-15T01:00:36.035Z,1.60
2023-04-15T01:03:04.369Z,0.90
2023-04-15T01:05:33.775Z,0.80
2023-04-15T01:08:02.858Z,1.10
2023-04-15T01:10:32.142Z,1.10
2023-04-15T01:13:00.889Z,1.40
2023-04-15T01:15:29.227Z,1.10
2023-04-15T01:18:01.067Z,1.50
2023-04-15T01:20:30.075Z,1.20
2023-04-15T01:22:59.014Z,1.00
2023-04-15T01:25:34.781Z,1.80
2023-04-15T01:28:03.487Z,1.40
2023-04-15T01:30:36.491Z,1.10
2023-04-15T01:33:05.047Z,1.10
2023-04-15T01:35:33.413Z,1.20
2023-04-15T01:38:08.453Z,1.20
2023-04-15T01:43:04.910Z,1.30
2023-04-15T01:45:33.270Z,1.00
2023-04-15T01:48:01.631Z,1.20
2023-04-15T01:50:30.481Z,1.60
2023-04-15T01:52:58.881Z,0.90
2023-04-15T01:55:27.279Z,1.00
2023-04-15T01:57:55.434Z,1.20
2023-04-15T02:00:24.158Z,1.00
2023-04-15T02:02:54.076Z,0.90
2023-04-15T02:05:22.443Z,1.20
2023-04-15T02:07:51.059Z,1.30
2023-04-15T02:10:19.477Z,1.30
2023-04-15T02:12:47.670Z,1.20
2023-04-15T02:15:15.964Z,0.90
2023-04-15T02:17:46.116Z,1.20
2023-04-15T02:20:16.832Z,1.30
2023-04-15T02:22:45.127Z,1.10
2023-04-15T02:25:13.774Z,1.00
2023-04-15T02:27:42.006Z,0.90
2023-04-15T02:30:11.057Z,1.30
2023-04-15T02:32:40.421Z,1.60
2023-04-15T02:35:09.116Z,1.60
2023-04-15T02:37:43.445Z,1.40
2023-04-15T02:40:13.244Z,1.10
2023-04-15T02:42:42.880Z,1.30
2023-04-15T02:45:13.227Z,1.40
2023-04-15T02:47:42.103Z,1.20
2023-04-15T02:50:13.286Z,1.20
2023-04-15T02:52:43.131Z,1.60
2023-04-15T02:55:11.822Z,1.40
2023-04-15T02:57:41.254Z,1.50
2023-04-15T03:00:12.130Z,1.50
2023-04-15T03:02:43.408Z,1.30
2023-04-15T03:05:13.702Z,1.70
2023-04-15T03:07:48.844Z,1.50
2023-04-15T03:10:17.437Z,1.80
2023-04-15T03:12:48.108Z,1.90
2023-04-15T03:15:21.341Z,2.70
2023-04-15T03:17:51.963Z,2.30
2023-04-15T03:20:20.522Z,1.50
2023-04-15T03:22:49.931Z,1.30
2023-04-15T03:25:20.160Z,1.70
2023-04-15T03:27:48.373Z,1.50
2023-04-15T03:30:17.226Z,1.50
2023-04-15T03:32:45.651Z,1.30
2023-04-15T03:35:14.560Z,1.30
2023-04-15T03:37:42.933Z,1.30
2023-04-15T03:40:11.620Z,1.70
2023-04-15T03:42:39.898Z,1.80
2023-04-15T03:45:08.674Z,1.80
2023-04-15T03:47:37.026Z,1.50
2023-04-15T03:50:05.865Z,1.40
2023-04-15T03:52:34.208Z,1.50
2023-04-15T03:55:02.496Z,1.30
2023-04-15T03:57:31.398Z,1.30
2023-04-15T03:59:59.662Z,1.40
2023-04-15T04:02:28.443Z,1.30
2023-04-15T04:04:56.866Z,1.50
2023-04-15T04:07:25.475Z,1.70
2023-04-15T04:09:53.815Z,1.60
2023-04-15T04:12:22.147Z,1.40
2023-04-15T04:14:50.564Z,1.60
2023-04-15T04:17:18.981Z,1.50
2023-04-15T04:19:47.366Z,1.40
2023-04-15T04:22:15.787Z,1.50
2023-04-15T04:24:44.071Z,1.60
2023-04-15T04:27:12.419Z,1.50
2023-04-15T04:29:40.663Z,1.10
2023-04-15T04:32:09.136Z,1.30
2023-04-15T04:34:37.370Z,1.50
2023-04-15T04:37:05.996Z,1.50
2023-04-15T04:39:34.352Z,2.00
2023-04-15T04:42:02.979Z,1.30
2023-04-15T04:44:31.366Z,1.40
2023-04-15T04:46:59.834Z,1.30
2023-04-15T04:49:28.081Z,1.60
2023-04-15T04:51:56.516Z,1.30
2023-04-15T04:54:24.839Z,1.60
2023-04-15T04:56:53.243Z,1.50
2023-04-15T04:59:21.520Z,1.40
2023-04-15T05:01:50.318Z,1.70
2023-04-15T05:04:19.004Z,1.40
2023-04-15T05:06:47.314Z,1.20
2023-04-15T05:09:15.751Z,1.60
2023-04-15T05:11:44.087Z,2.10
2023-04-15T05:14:12.402Z,1.50
2023-04-15T05:16:40.690Z,1.50
2023-04-15T05:19:09.513Z,1.70
2023-04-15T05:21:39.402Z,1.70
2023-04-15T05:24:07.918Z,1.70
2023-04-15T05:26:36.209Z,2.00
2023-04-15T05:29:04.701Z,1.90
2023-04-15T05:31:33.159Z,1.50
2023-04-15T05:34:01.729Z,1.90
2023-04-15T05:36:30.014Z,1.90
2023-04-15T05:38:58.542Z,1.50
2023-04-15T05:41:26.823Z,1.70
2023-04-15T05:43:55.085Z,2.90
2023-04-15T05:46:23.581Z,1.30
2023-04-15T05:48:52.335Z,1.30
2023-04-15T05:51:21.665Z,1.50
2023-04-15T05:53:51.309Z,1.60
2023-04-15T05:56:20.708Z,1.60
2023-04-15T05:58:49.054Z,1.40
2023-04-15T06:01:17.432Z,1.60
2023-04-15T06:03:45.838Z,1.20
2023-04-15T06:06:15.508Z,1.70
2023-04-15T06:08:43.879Z,1.60
2023-04-15T06:11:12.258Z,1.60
2023-04-15T06:13:40.689Z,1.30
2023-04-15T06:16:09.417Z,1.30
2023-04-15T06:18:37.670Z,1.60
2023-04-15T06:21:06.180Z,1.40
2023-04-15T06:23:36.425Z,1.60
2023-04-15T06:26:04.777Z,1.40
2023-04-15T06:28:33.132Z,1.30
2023-04-15T06:31:02.002Z,2.30
2023-04-15T06:33:30.244Z,1.70
2023-04-15T06:35:58.603Z,1.70
2023-04-15T06:38:26.981Z,2.00
2023-04-15T06:41:21.988Z,1.60
2023-04-15T06:43:51.111Z,1.80
2023-04-15T06:46:23.288Z,2.20
2023-04-15T06:48:52.557Z,1.90
2023-04-15T06:51:20.846Z,1.70
2023-04-15T06:53:49.684Z,1.60
2023-04-15T06:56:18.335Z,1.60
2023-04-15T06:58:47.270Z,1.80
2023-04-15T07:01:15.525Z,1.80
2023-04-15T07:03:43.975Z,1.80
2023-04-15T07:06:13.346Z,2.10
2023-04-15T07:08:42.006Z,2.20
2023-04-15T07:11:11.595Z,2.00
2023-04-15T07:13:39.794Z,2.60
2023-04-15T07:16:08.983Z,2.00
2023-04-15T07:18:37.507Z,2.00
2023-04-15T07:21:05.863Z,2.20
2023-04-15T07:23:36.313Z,1.80
2023-04-15T07:26:04.907Z,1.70
2023-04-15T07:28:34.368Z,1.90
2023-04-15T07:31:02.687Z,2.00
2023-04-15T07:33:31.136Z,1.90
2023-04-15T07:35:59.443Z,1.90
2023-04-15T07:38:27.681Z,2.10
2023-04-15T07:40:56.821Z,1.80
2023-04-15T07:43:25.316Z,1.60
2023-04-15T07:45:53.549Z,2.00
2023-04-15T07:48:21.844Z,1.70
2023-04-15T07:50:50.135Z,1.70
2023-04-15T07:53:18.444Z,2.00
2023-04-15T07:55:46.772Z,2.00
2023-04-15T07:58:15.148Z,2.20
2023-04-15T08:00:43.440Z,1.90
2023-04-15T08:03:11.981Z,2.00
2023-04-15T08:05:40.242Z,1.90
2023-04-15T08:08:08.927Z,1.80
2023-04-15T08:10:37.732Z,2.00
2023-04-15T08:13:06.027Z,2.10
2023-04-15T08:15:34.284Z,1.90
2023-04-15T08:18:02.668Z,1.90
2023-04-15T08:20:31.257Z,1.80
2023-04-15T08:22:59.530Z,2.00
2023-04-15T08:25:27.836Z,2.00
2023-04-15T08:27:59.638Z,1.90
2023-04-15T08:30:28.169Z,1.80
2023-04-15T08:32:56.724Z,1.80
2023-04-15T08:35:25.095Z,1.90
2023-04-15T08:37:53.387Z,1.40
2023-04-15T08:40:28.391Z,1.60
2023-04-15T08:42:58.950Z,2.00
2023-04-15T08:45:27.563Z,2.00
2023-04-15T08:47:57.158Z,1.70
2023-04-15T08:50:28.793Z,2.30
2023-04-15T08:52:59.889Z,1.40
2023-04-15T08:55:34.558Z,1.70
2023-04-15T09:00:32.879Z,2.10
2023-04-15T09:03:02.025Z,1.60
2023-04-15T09:05:33.633Z,1.70
2023-04-15T09:08:02.993Z,2.20
2023-04-15T09:10:32.893Z,1.60
2023-04-15T09:13:02.148Z,1.50
2023-04-15T09:15:32.385Z,1.50
2023-04-15T09:18:00.863Z,6.10
2023-04-15T09:20:29.169Z,4.30
2023-04-15T09:22:57.498Z,1.90
2023-04-15T09:25:32.196Z,6.30
2023-04-15T09:28:03.191Z,1.90
2023-04-15T09:30:31.866Z,3.00
2023-04-15T09:33:02.551Z,2.30
2023-04-15T09:35:31.031Z,2.00
2023-04-15T09:38:07.675Z,1.80
2023-04-15T09:40:37.461Z,1.50
2023-04-15T09:43:07.065Z,1.40
2023-04-15T09:45:37.230Z,1.70
2023-04-15T09:48:22.719Z,1.40
2023-04-15T09:50:53.736Z,1.90
2023-04-15T09:53:23.608Z,2.50
2023-04-15T09:55:57.544Z,1.90
2023-04-15T09:58:27.692Z,2.20
2023-04-15T10:00:58.654Z,1.50
2023-04-15T10:03:29.575Z,1.60
2023-04-15T10:05:59.690Z,2.90
2023-04-15T10:08:30.581Z,1.70
2023-04-15T10:10:59.322Z,2.10
2023-04-15T10:13:33.435Z,1.70
2023-04-15T10:16:11.444Z,1.80
2023-04-15T10:18:43.922Z,2.10
2023-04-15T10:21:14.160Z,2.70
2023-04-15T10:23:43.003Z,3.60
2023-04-15T10:26:12.797Z,2.80
2023-04-15T10:28:41.807Z,2.00
2023-04-15T10:31:17.395Z,1.50
2023-04-15T10:33:47.499Z,1.80
2023-04-15T10:36:16.906Z,2.90
2023-04-15T10:38:46.898Z,2.60
2023-04-15T10:41:26.744Z,1.50
2023-04-15T10:44:03.296Z,1.90
2023-04-15T10:46:40.446Z,2.10
2023-04-15T10:49:11.127Z,1.80
2023-04-15T10:51:44.994Z,1.60
2023-04-15T10:54:32.312Z,1.90
2023-04-15T10:57:01.629Z,1.70
2023-04-15T10:59:58.976Z,2.10
2023-04-15T11:02:44.315Z,2.40
2023-04-15T11:05:17.025Z,1.70
2023-04-15T11:07:51.443Z,2.40
2023-04-15T11:12:56.884Z,1.90
2023-04-15T11:15:45.049Z,1.70
2023-04-15T11:18:17.362Z,16.10
2023-04-15T11:20:47.962Z,4.80
2023-04-15T11:23:18.860Z,12.50
2023-04-15T11:25:47.653Z,9.40
2023-04-15T11:28:16.142Z,26.40
2023-04-15T11:30:44.685Z,3.60
2023-04-15T11:33:14.030Z,4.10
2023-04-15T11:35:42.705Z,20.90
2023-04-15T11:38:13.896Z,3.40
2023-04-15T11:40:45.471Z,3.30
2023-04-15T11:43:14.581Z,5.40
2023-04-15T11:45:53.844Z,2.40
2023-04-15T11:48:25.114Z,2.40
2023-04-15T11:51:07.276Z,2.20
2023-04-15T11:53:38.663Z,2.30
2023-04-15T11:56:09.004Z,2.30
2023-04-15T11:58:38.759Z,2.60
2023-04-15T12:01:07.920Z,2.80
2023-04-15T12:03:45.543Z,2.70
2023-04-15T12:06:21.805Z,4.90
2023-04-15T12:08:53.053Z,7.50
2023-04-15T12:11:27.544Z,3.10
2023-04-15T12:14:15.929Z,3.10
2023-04-15T12:16:51.907Z,3.00
2023-04-15T12:19:35.359Z,3.40
2023-04-15T12:22:30.158Z,3.60
2023-04-15T12:25:02.736Z,4.60
2023-04-15T12:27:32.443Z,3.70
2023-04-15T12:30:08.255Z,2.80
2023-04-15T12:32:38.218Z,2.90
2023-04-15T12:39:27.221Z,2.50
2023-04-15T12:42:00.510Z,2.60
2023-04-15T12:44:29.698Z,3.20
2023-04-15T12:46:58.290Z,5.60
2023-04-15T12:49:26.813Z,24.70
2023-04-15T12:51:57.439Z,8.30
2023-04-15T12:54:27.131Z,13.50
2023-04-15T12:56:56.168Z,16.10
2023-04-15T12:59:24.888Z,11.40
2023-04-15T13:01:54.324Z,10.70
2023-04-15T13:04:30.791Z,5.10
2023-04-15T13:06:59.725Z,9.50
2023-04-15T13:09:30.436Z,15.80
2023-04-15T13:11:59.354Z,7.70
2023-04-15T13:14:27.765Z,5.20
2023-04-15T13:16:58.424Z,4.20
2023-04-15T13:19:36.139Z,3.60
2023-04-15T13:22:08.448Z,4.00
2023-04-15T13:24:37.165Z,3.30
2023-04-15T13:27:05.542Z,4.10
2023-04-15T13:29:33.936Z,3.10
2023-04-15T13:32:02.406Z,3.90
2023-04-15T13:34:31.860Z,3.30
2023-04-15T13:37:06.909Z,2.50
2023-04-15T13:39:35.658Z,2.80
2023-04-15T13:42:04.164Z,3.40
2023-04-15T13:44:33.563Z,10.70
2023-04-15T13:47:35.302Z,3.30
2023-04-15T13:50:03.792Z,7.90
2023-04-15T13:52:32.199Z,3.00
2023-04-15T13:55:18.093Z,4.30
2023-04-15T13:57:50.534Z,4.00
2023-04-15T14:00:18.831Z,8.10
2023-04-15T14:02:47.192Z,11.80
2023-04-15T14:05:15.806Z,5.40
2023-04-15T14:07:44.338Z,5.80
2023-04-15T14:10:12.969Z,5.70
2023-04-15T14:12:41.553Z,3.50
2023-04-15T14:15:14.599Z,3.10
2023-04-15T14:17:43.807Z,4.20
2023-04-15T14:20:22.881Z,6.20
2023-04-15T14:22:54.215Z,3.00
2023-04-15T14:25:33.204Z,5.60
2023-04-15T14:28:03.747Z,3.10
2023-04-15T14:30:33.185Z,2.90
2023-04-15T14:33:01.847Z,3.10
2023-04-15T14:35:31.121Z,2.90
2023-04-15T14:37:59.504Z,2.90
2023-04-15T14:40:28.267Z,2.70
2023-04-15T14:42:56.762Z,2.80
2023-04-15T14:45:27.694Z,2.50
2023-04-15T14:47:57.058Z,2.70
2023-04-15T14:50:25.602Z,3.20
2023-04-15T14:52:53.838Z,2.80
2023-04-15T14:55:22.234Z,2.30
2023-04-15T14:57:50.636Z,2.60
2023-04-15T15:00:19.019Z,2.80
2023-04-15T15:02:47.811Z,2.40
2023-04-15T15:05:16.392Z,11.60
2023-04-15T15:07:44.930Z,16.10
2023-04-15T15:10:13.604Z,7.70
2023-04-15T15:12:41.808Z,3.10
2023-04-15T15:15:25.032Z,3.00
2023-04-15T15:17:56.845Z,2.70
2023-04-15T15:20:25.869Z,2.60
2023-04-15T15:22:54.075Z,2.60
2023-04-15T15:25:22.487Z,2.70
2023-04-15T15:27:50.879Z,3.10
2023-04-15T15:30:19.233Z,3.00
2023-04-15T15:32:47.704Z,2.80
2023-04-15T15:35:16.444Z,2.80
2023-04-15T15:37:45.941Z,2.90
2023-04-15T15:40:14.373Z,2.70
2023-04-15T15:42:43.104Z,2.70
2023-04-15T15:45:11.698Z,2.60
2023-04-15T15:47:41.146Z,2.70
2023-04-15T15:50:09.766Z,4.80
2023-04-15T15:52:38.155Z,2.90
2023-04-15T15:55:07.021Z,6.60
2023-04-15T15:57:35.452Z,3.50
2023-04-15T16:00:12.120Z,3.40
2023-04-15T16:05:12.417Z,7.30
2023-04-15T16:07:40.702Z,7.30
2023-04-15T16:10:09.447Z,5.10
2023-04-15T16:12:37.812Z,4.90
2023-04-15T16:15:06.694Z,3.50
2023-04-15T16:17:35.028Z,4.90
2023-04-15T16:20:05.719Z,2.90
2023-04-15T16:22:35.339Z,2.50
2023-04-15T16:25:03.958Z,2.60
2023-04-15T16:27:33.853Z,3.10
2023-04-15T16:30:03.994Z,2.00
2023-04-15T16:32:32.520Z,2.60
2023-04-15T16:35:00.933Z,4.20
2023-04-15T16:37:29.467Z,3.50
2023-04-15T16:39:57.666Z,3.00
2023-04-15T16:42:26.442Z,3.40
2023-04-15T16:44:56.288Z,3.40
2023-04-15T16:47:24.694Z,3.10
2023-04-15T16:49:53.002Z,3.30
2023-04-15T16:52:21.298Z,4.30
2023-04-15T16:54:49.491Z,4.20
2023-04-15T16:57:17.743Z,3.50
2023-04-15T16:59:46.569Z,3.60
2023-04-15T17:02:15.007Z,2.80
2023-04-15T17:04:43.446Z,3.00
2023-04-15T17:07:11.877Z,2.30
2023-04-15T17:09:40.825Z,2.40
2023-04-15T17:12:09.141Z,2.10
2023-04-15T17:14:38.708Z,2.40
2023-04-15T17:17:06.930Z,2.30
2023-04-15T17:19:35.367Z,2.20
2023-04-15T17:22:03.647Z,2.10
2023-04-15T17:24:31.961Z,1.70
2023-04-15T17:27:02.657Z,2.70
2023-04-15T17:29:32.057Z,3.10
2023-04-15T17:32:01.155Z,3.20
2023-04-15T17:34:50.392Z,4.10
2023-04-15T17:37:17.941Z,3.20
2023-04-15T17:39:46.243Z,2.90
2023-04-15T17:42:14.476Z,3.30
2023-04-15T17:44:42.999Z,3.30
2023-04-15T17:47:11.338Z,2.90
2023-04-15T17:49:39.565Z,3.10
2023-04-15T17:52:07.910Z,3.70
2023-04-15T17:54:36.212Z,3.20
2023-04-15T17:57:04.610Z,3.20
2023-04-15T17:59:34.131Z,3.40
2023-04-15T18:02:02.468Z,3.10
2023-04-15T18:06:59.414Z,3.40
2023-04-15T18:09:27.850Z,4.70
2023-04-15T18:11:57.273Z,4.00
2023-04-15T18:14:34.311Z,3.90
2023-04-15T18:17:03.592Z,4.30
2023-04-15T18:19:32.171Z,5.70
2023-04-15T18:22:00.735Z,5.10
2023-04-15T18:24:30.146Z,4.50
2023-04-15T18:27:02.281Z,6.80
2023-04-15T18:29:31.478Z,5.40
2023-04-15T18:32:00.460Z,6.10
2023-04-15T18:34:29.875Z,6.10
2023-04-15T18:36:58.590Z,5.70
2023-04-15T18:39:27.873Z,5.10
2023-04-15T18:41:57.354Z,5.20
2023-04-15T18:44:25.850Z,5.10
2023-04-15T18:46:54.329Z,5.30
2023-04-15T18:49:23.688Z,5.40
2023-04-15T18:51:51.964Z,5.10
2023-04-15T18:54:20.321Z,5.40
2023-04-15T18:56:48.784Z,5.40
2023-04-15T18:59:28.912Z,4.90
2023-04-15T19:02:00.521Z,5.60
2023-04-15T19:04:29.391Z,5.50
2023-04-15T19:06:59.195Z,6.00
2023-04-15T19:09:29.377Z,7.60
2023-04-15T19:11:58.960Z,7.10
2023-04-15T19:14:27.257Z,7.40
2023-04-15T19:16:56.214Z,7.40
2023-04-15T19:19:24.704Z,8.70
2023-04-15T19:21:53.735Z,10.00
2023-04-15T19:24:22.521Z,9.90
2023-04-15T19:26:51.274Z,10.40
2023-04-15T19:29:19.777Z,10.50
2023-04-15T19:31:48.294Z,10.50
2023-04-15T19:34:16.817Z,10.70
2023-04-15T19:36:45.514Z,11.20
2023-04-15T19:39:14.672Z,10.70
2023-04-15T19:41:44.330Z,10.20
2023-04-15T19:44:13.874Z,8.60
2023-04-15T19:46:44.830Z,9.00
2023-04-15T19:49:13.230Z,7.40
2023-04-15T19:51:41.638Z,7.30
2023-04-15T19:54:09.912Z,6.90
2023-04-15T19:56:38.372Z,7.30
2023-04-15T19:59:07.064Z,6.70
2023-04-15T20:01:35.844Z,6.10
2023-04-15T20:04:04.801Z,6.50
2023-04-15T20:06:33.464Z,7.10
2023-04-15T20:09:01.681Z,7.40
2023-04-15T20:12:44.991Z,7.60
2023-04-15T20:14:18.409Z,7.30
2023-04-15T20:16:46.726Z,8.00
2023-04-15T20:19:15.016Z,7.80
2023-04-15T20:21:43.357Z,7.40
2023-04-15T20:24:11.780Z,7.60
2023-04-15T20:26:40.076Z,7.90
2023-04-15T20:29:08.676Z,6.80
2023-04-15T20:31:37.358Z,7.20
2023-04-15T20:34:10.731Z,7.20
2023-04-15T20:36:40.614Z,6.80
2023-04-15T20:39:08.902Z,6.80
2023-04-15T20:41:37.237Z,6.50
2023-04-15T20:44:05.804Z,6.30
2023-04-15T20:46:34.103Z,6.00
2023-04-15T20:49:02.456Z,6.60
2023-04-15T20:51:37.340Z,7.50
2023-04-15T20:54:06.712Z,6.60
2023-04-15T20:56:35.026Z,6.60
2023-04-15T20:59:03.495Z,6.80
2023-04-15T21:01:31.896Z,7.40
2023-04-15T21:04:00.262Z,7.10
2023-04-15T21:06:28.454Z,6.40
2023-04-15T21:08:56.678Z,6.60
2023-04-15T21:11:45.792Z,6.50
2023-04-15T21:14:13.518Z,6.40
2023-04-15T21:16:42.834Z,6.80
2023-04-15T21:19:11.104Z,6.50
2023-04-15T21:21:39.301Z,6.60
2023-04-15T21:24:07.902Z,6.70
2023-04-15T21:26:36.349Z,7.20
2023-04-15T21:29:04.953Z,6.90
2023-04-15T21:31:33.961Z,8.60
2023-04-15T21:34:02.237Z,7.40
2023-04-15T21:36:31.786Z,6.60
2023-04-15T21:39:00.510Z,7.70
2023-04-15T21:41:28.783Z,7.80
2023-04-15T21:43:57.193Z,7.20
2023-04-15T21:46:32.671Z,7.70
2023-04-15T21:49:01.588Z,7.30
2023-04-15T21:51:29.987Z,7.50
2023-04-15T21:53:58.840Z,7.30
2023-04-15T21:56:27.152Z,7.80
2023-04-15T21:58:57.594Z,7.20
2023-04-15T22:01:27.044Z,7.70
2023-04-15T22:03:55.732Z,6.80
2023-04-15T22:06:24.287Z,7.50
2023-04-15T22:08:57.110Z,6.80
2023-04-15T22:11:27.626Z,7.40
2023-04-15T22:13:59.795Z,8.00
2023-04-15T22:16:28.634Z,7.20
2023-04-15T22:18:57.167Z,7.10
2023-04-15T22:21:25.525Z,7.30
2023-04-15T22:24:33.039Z,7.80
2023-04-15T22:26:42.219Z,6.80
2023-04-15T22:29:10.809Z,7.00
2023-04-15T22:31:39.153Z,6.90
2023-04-15T22:34:08.164Z,6.80
2023-04-15T22:36:38.618Z,6.70
2023-04-15T22:39:07.157Z,7.20
2023-04-15T22:42:02.149Z,7.30
2023-04-15T22:44:30.560Z,6.70
2023-04-15T22:46:58.868Z,7.10
2023-04-15T22:49:27.486Z,6.80
2023-04-15T22:51:56.081Z,7.20
2023-04-15T22:54:24.640Z,7.30
2023-04-15T22:56:53.169Z,6.80
2023-04-15T22:59:21.447Z,6.80
2023-04-15T23:01:50.231Z,6.90
2023-04-15T23:04:25.703Z,7.90
2023-04-15T23:06:55.046Z,7.50
2023-04-15T23:09:23.350Z,7.20
2023-04-15T23:11:51.736Z,8.10
2023-04-15T23:14:20.048Z,7.40
2023-04-15T23:16:48.444Z,7.40
2023-04-15T23:19:16.692Z,7.90
2023-04-15T23:21:45.633Z,7.60
2023-04-15T23:24:14.003Z,7.60
2023-04-15T23:26:42.412Z,7.40
2023-04-15T23:29:11.015Z,7.00
2023-04-15T23:31:41.647Z,6.40
2023-04-15T23:34:10.121Z,6.90
2023-04-15T23:36:38.495Z,6.30
2023-04-15T23:39:06.766Z,6.70
2023-04-15T23:41:36.539Z,6.90
2023-04-15T23:44:05.060Z,6.80
2023-04-15T23:46:33.383Z,8.20
2023-04-15T23:49:01.768Z,7.80
2023-04-15T23:51:30.157Z,8.00
2023-04-15T23:53:58.326Z,7.20
2023-04-15T23:56:26.614Z,7.50
2023-04-15T23:58:54.951Z,7.70
